Portada
METAR-TAF:

METAR-TAF

Aeroports :

Oral, Kazakhstan

latitud: 51-15N, longitud: 051-17E, altitud: 36 m

Observació

L'informe es va fer fa 41 minuts, a les 22:00 UTC
Vent 19 kt del Sud/Sud-Oest
Temperatura 2°C
Humitat 75%
Pressió 1023 hPa
Visibilitat 10 km o més
Núvols disperses a una alçada de 3800 ft
Cel cobert a una alçada de 10000 ft

METAR: UARR 182200Z 21010MPS 9999 SCT038 OVC100 02/M02 Q1023 R22/CLRD70 NOSIG RMK QFE764/1019

Hora: 03:41 (22:41 UTC)

Pronòstic

L'informe es va fer fa 2 hores i 40 minuts, a les 20:01 UTC
Pronòstic vàlid del 18 a les 21 UTC al 19 a les 06 UTC
Vent 16 kt del Sud/Sud-Oest amb ràfegues de 25 kt
Visibilitat: 3100 m
Cel ennuvolat a una alçada de 1100 ft
boirina
Temporalment
l' 19 a les 00 UTC al 19 a les 03 UTC
Visibilitat: 0400 m
a una alçada de 200 ft
boira

TAF: UARR 182001Z 1821/1906 20008G13MPS 3100 BR BKN011 TEMPO 1900/1903 0400 FG VV002

Observacions i pronòstics meteorològics de més de 4000 aeroports (METAR i TAF).

Les estacions disponibles són els punts grocs i vermells al mapa.

Posi el ratolí al punt desitjat per veure el nom de l'estació.

Feu clic per veure les observacions i els pronòstics meteorològics.

Per canviar el mapa: feu clic els botons verds amb una creu de color negre per apropar; al botó verd amb un guió per allunyar la imatge; o en les fletxes verdes per a mapes adjacents.


METAR-TAF: